sensor_id;sensor_type;location;lat;lon;timestamp;P1;durP1;ratioP1;P2;durP2;ratioP2
16173;SDS011;14031;50.158;8.626;2022-08-02T00:02:19;1.50;;;1.50;;
16173;SDS011;14031;50.158;8.626;2022-08-02T00:04:46;1.55;;;1.55;;
16173;SDS011;14031;50.158;8.626;2022-08-02T00:07:13;1.60;;;1.60;;
16173;SDS011;14031;50.158;8.626;2022-08-02T00:09:40;1.50;;;1.50;;
16173;SDS011;14031;50.158;8.626;2022-08-02T00:12:07;1.60;;;1.50;;
16173;SDS011;14031;50.158;8.626;2022-08-02T00:14:35;1.35;;;1.35;;
16173;SDS011;14031;50.158;8.626;2022-08-02T00:17:02;1.60;;;1.50;;
16173;SDS011;14031;50.158;8.626;2022-08-02T00:19:30;1.50;;;1.50;;
16173;SDS011;14031;50.158;8.626;2022-08-02T00:21:57;1.40;;;1.40;;
16173;SDS011;14031;50.158;8.626;2022-08-02T00:24:24;2.05;;;1.50;;
16173;SDS011;14031;50.158;8.626;2022-08-02T00:26:51;1.38;;;1.38;;
16173;SDS011;14031;50.158;8.626;2022-08-02T00:29:18;1.80;;;1.70;;
16173;SDS011;14031;50.158;8.626;2022-08-02T00:31:45;1.50;;;1.50;;
16173;SDS011;14031;50.158;8.626;2022-08-02T00:34:12;1.77;;;1.67;;
16173;SDS011;14031;50.158;8.626;2022-08-02T00:36:40;1.70;;;1.60;;
16173;SDS011;14031;50.158;8.626;2022-08-02T00:39:07;1.80;;;1.70;;
16173;SDS011;14031;50.158;8.626;2022-08-02T00:41:42;1.77;;;1.75;;
16173;SDS011;14031;50.158;8.626;2022-08-02T00:44:12;1.63;;;1.52;;
16173;SDS011;14031;50.158;8.626;2022-08-02T00:46:39;2.88;;;1.40;;
16173;SDS011;14031;50.158;8.626;2022-08-02T00:49:06;1.55;;;1.55;;
16173;SDS011;14031;50.158;8.626;2022-08-02T00:51:33;1.92;;;1.67;;
16173;SDS011;14031;50.158;8.626;2022-08-02T00:54:01;1.27;;;1.27;;
16173;SDS011;14031;50.158;8.626;2022-08-02T00:56:28;1.55;;;1.55;;
16173;SDS011;14031;50.158;8.626;2022-08-02T00:58:55;1.60;;;1.60;;
16173;SDS011;14031;50.158;8.626;2022-08-02T01:01:22;1.50;;;1.50;;
16173;SDS011;14031;50.158;8.626;2022-08-02T01:04:02;1.30;;;1.30;;
16173;SDS011;14031;50.158;8.626;2022-08-02T01:06:30;1.48;;;1.48;;
16173;SDS011;14031;50.158;8.626;2022-08-02T01:08:57;1.40;;;1.40;;
16173;SDS011;14031;50.158;8.626;2022-08-02T01:11:26;1.80;;;1.80;;
16173;SDS011;14031;50.158;8.626;2022-08-02T01:13:54;1.45;;;1.45;;
16173;SDS011;14031;50.158;8.626;2022-08-02T01:16:22;1.90;;;1.80;;
16173;SDS011;14031;50.158;8.626;2022-08-02T01:18:55;1.65;;;1.55;;
16173;SDS011;14031;50.158;8.626;2022-08-02T01:21:38;1.50;;;1.40;;
16173;SDS011;14031;50.158;8.626;2022-08-02T01:24:20;1.45;;;1.45;;
16173;SDS011;14031;50.158;8.626;2022-08-02T01:27:04;1.65;;;1.60;;
16173;SDS011;14031;50.158;8.626;2022-08-02T01:29:45;1.55;;;1.55;;
16173;SDS011;14031;50.158;8.626;2022-08-02T01:32:18;1.42;;;1.42;;
16173;SDS011;14031;50.158;8.626;2022-08-02T01:34:53;1.55;;;1.55;;
16173;SDS011;14031;50.158;8.626;2022-08-02T01:37:25;1.40;;;1.40;;
16173;SDS011;14031;50.158;8.626;2022-08-02T01:40:00;1.38;;;1.38;;
16173;SDS011;14031;50.158;8.626;2022-08-02T01:42:30;1.50;;;1.50;;
16173;SDS011;14031;50.158;8.626;2022-08-02T01:44:59;3.00;;;1.70;;
16173;SDS011;14031;50.158;8.626;2022-08-02T01:47:28;1.55;;;1.55;;
16173;SDS011;14031;50.158;8.626;2022-08-02T01:49:59;1.45;;;1.45;;
16173;SDS011;14031;50.158;8.626;2022-08-02T01:52:30;1.70;;;1.60;;
16173;SDS011;14031;50.158;8.626;2022-08-02T01:55:02;1.40;;;1.40;;
16173;SDS011;14031;50.158;8.626;2022-08-02T01:57:32;1.80;;;1.80;;
16173;SDS011;14031;50.158;8.626;2022-08-02T02:00:05;1.50;;;1.40;;
16173;SDS011;14031;50.158;8.626;2022-08-02T02:02:33;1.85;;;1.75;;
16173;SDS011;14031;50.158;8.626;2022-08-02T02:05:02;2.05;;;1.88;;
16173;SDS011;14031;50.158;8.626;2022-08-02T02:07:31;1.60;;;1.60;;
16173;SDS011;14031;50.158;8.626;2022-08-02T02:10:00;1.50;;;1.50;;
16173;SDS011;14031;50.158;8.626;2022-08-02T02:12:29;1.60;;;1.60;;
16173;SDS011;14031;50.158;8.626;2022-08-02T02:14:58;1.63;;;1.55;;
16173;SDS011;14031;50.158;8.626;2022-08-02T02:17:28;1.80;;;1.70;;
16173;SDS011;14031;50.158;8.626;2022-08-02T02:19:57;1.30;;;1.30;;
16173;SDS011;14031;50.158;8.626;2022-08-02T02:22:27;1.60;;;1.60;;
16173;SDS011;14031;50.158;8.626;2022-08-02T02:24:54;1.73;;;1.67;;
16173;SDS011;14031;50.158;8.626;2022-08-02T02:27:21;1.85;;;1.77;;
16173;SDS011;14031;50.158;8.626;2022-08-02T02:29:49;1.52;;;1.52;;
16173;SDS011;14031;50.158;8.626;2022-08-02T02:32:18;2.50;;;1.80;;
16173;SDS011;14031;50.158;8.626;2022-08-02T02:34:49;1.92;;;1.83;;
16173;SDS011;14031;50.158;8.626;2022-08-02T02:37:19;3.13;;;1.63;;
16173;SDS011;14031;50.158;8.626;2022-08-02T02:39:48;1.90;;;1.90;;
16173;SDS011;14031;50.158;8.626;2022-08-02T02:42:17;1.95;;;1.90;;
16173;SDS011;14031;50.158;8.626;2022-08-02T02:44:46;1.83;;;1.83;;
16173;SDS011;14031;50.158;8.626;2022-08-02T02:47:15;1.83;;;1.83;;
16173;SDS011;14031;50.158;8.626;2022-08-02T02:49:44;1.85;;;1.85;;
16173;SDS011;14031;50.158;8.626;2022-08-02T02:52:14;1.98;;;1.90;;
16173;SDS011;14031;50.158;8.626;2022-08-02T02:54:42;2.30;;;2.20;;
16173;SDS011;14031;50.158;8.626;2022-08-02T02:57:12;2.40;;;2.00;;
16173;SDS011;14031;50.158;8.626;2022-08-02T02:59:39;1.98;;;1.88;;
16173;SDS011;14031;50.158;8.626;2022-08-02T03:02:07;2.55;;;1.98;;
16173;SDS011;14031;50.158;8.626;2022-08-02T03:04:36;1.98;;;1.90;;
16173;SDS011;14031;50.158;8.626;2022-08-02T03:07:07;1.73;;;1.73;;
16173;SDS011;14031;50.158;8.626;2022-08-02T03:09:36;2.95;;;2.00;;
16173;SDS011;14031;50.158;8.626;2022-08-02T03:12:03;1.90;;;1.90;;
16173;SDS011;14031;50.158;8.626;2022-08-02T03:14:32;1.95;;;1.95;;
16173;SDS011;14031;50.158;8.626;2022-08-02T03:16:59;3.40;;;2.08;;
16173;SDS011;14031;50.158;8.626;2022-08-02T03:19:26;2.13;;;2.10;;
16173;SDS011;14031;50.158;8.626;2022-08-02T03:21:53;2.22;;;2.13;;
16173;SDS011;14031;50.158;8.626;2022-08-02T03:24:20;1.90;;;1.83;;
16173;SDS011;14031;50.158;8.626;2022-08-02T03:26:48;2.60;;;2.45;;
16173;SDS011;14031;50.158;8.626;2022-08-02T03:29:15;2.17;;;2.08;;
16173;SDS011;14031;50.158;8.626;2022-08-02T03:31:42;1.90;;;1.80;;
16173;SDS011;14031;50.158;8.626;2022-08-02T03:34:11;2.28;;;2.00;;
16173;SDS011;14031;50.158;8.626;2022-08-02T03:36:38;2.30;;;2.20;;
16173;SDS011;14031;50.158;8.626;2022-08-02T03:39:07;2.03;;;2.00;;
16173;SDS011;14031;50.158;8.626;2022-08-02T03:41:34;2.38;;;1.85;;
16173;SDS011;14031;50.158;8.626;2022-08-02T03:44:03;2.10;;;2.00;;
16173;SDS011;14031;50.158;8.626;2022-08-02T03:46:32;2.00;;;1.90;;
16173;SDS011;14031;50.158;8.626;2022-08-02T03:49:03;2.20;;;2.10;;
16173;SDS011;14031;50.158;8.626;2022-08-02T03:51:31;1.80;;;1.80;;
16173;SDS011;14031;50.158;8.626;2022-08-02T03:53:59;2.15;;;2.05;;
16173;SDS011;14031;50.158;8.626;2022-08-02T03:56:26;1.90;;;1.90;;
16173;SDS011;14031;50.158;8.626;2022-08-02T03:59:05;2.17;;;2.08;;
16173;SDS011;14031;50.158;8.626;2022-08-02T04:01:33;2.10;;;2.00;;
16173;SDS011;14031;50.158;8.626;2022-08-02T04:03:59;4.13;;;3.70;;
16173;SDS011;14031;50.158;8.626;2022-08-02T04:06:26;9.70;;;8.85;;
16173;SDS011;14031;50.158;8.626;2022-08-02T04:08:53;3.38;;;3.20;;
16173;SDS011;14031;50.158;8.626;2022-08-02T04:11:20;2.92;;;2.75;;
16173;SDS011;14031;50.158;8.626;2022-08-02T04:13:56;2.42;;;2.20;;
16173;SDS011;14031;50.158;8.626;2022-08-02T04:16:28;1.85;;;1.85;;
16173;SDS011;14031;50.158;8.626;2022-08-02T04:19:03;2.63;;;2.30;;
16173;SDS011;14031;50.158;8.626;2022-08-02T04:21:34;2.33;;;2.20;;
16173;SDS011;14031;50.158;8.626;2022-08-02T04:24:02;2.20;;;2.10;;
16173;SDS011;14031;50.158;8.626;2022-08-02T04:26:31;2.15;;;2.05;;
16173;SDS011;14031;50.158;8.626;2022-08-02T04:28:59;2.30;;;2.20;;
16173;SDS011;14031;50.158;8.626;2022-08-02T04:31:28;3.00;;;2.90;;
16173;SDS011;14031;50.158;8.626;2022-08-02T04:33:55;2.30;;;2.20;;
16173;SDS011;14031;50.158;8.626;2022-08-02T04:36:22;2.83;;;2.63;;
16173;SDS011;14031;50.158;8.626;2022-08-02T04:38:50;2.13;;;2.03;;
16173;SDS011;14031;50.158;8.626;2022-08-02T04:41:16;2.20;;;2.10;;
16173;SDS011;14031;50.158;8.626;2022-08-02T04:43:43;2.40;;;2.30;;
16173;SDS011;14031;50.158;8.626;2022-08-02T04:46:10;2.30;;;2.00;;
16173;SDS011;14031;50.158;8.626;2022-08-02T04:48:39;3.38;;;2.42;;
16173;SDS011;14031;50.158;8.626;2022-08-02T04:51:05;2.45;;;2.35;;
16173;SDS011;14031;50.158;8.626;2022-08-02T04:53:32;2.40;;;2.30;;
16173;SDS011;14031;50.158;8.626;2022-08-02T04:55:59;2.53;;;2.40;;
16173;SDS011;14031;50.158;8.626;2022-08-02T04:58:26;3.40;;;2.30;;
16173;SDS011;14031;50.158;8.626;2022-08-02T05:00:53;2.70;;;2.53;;
16173;SDS011;14031;50.158;8.626;2022-08-02T05:03:20;2.70;;;2.28;;
16173;SDS011;14031;50.158;8.626;2022-08-02T05:05:48;2.78;;;2.67;;
16173;SDS011;14031;50.158;8.626;2022-08-02T05:08:19;2.78;;;2.55;;
16173;SDS011;14031;50.158;8.626;2022-08-02T05:10:46;2.40;;;2.30;;
16173;SDS011;14031;50.158;8.626;2022-08-02T05:35:49;4.22;;;2.10;;
16173;SDS011;14031;50.158;8.626;2022-08-02T05:38:16;4.57;;;2.58;;
16173;SDS011;14031;50.158;8.626;2022-08-02T05:41:03;2.47;;;2.20;;
16173;SDS011;14031;50.158;8.626;2022-08-02T05:53:23;2.45;;;2.35;;
16173;SDS011;14031;50.158;8.626;2022-08-02T05:55:56;2.55;;;2.35;;
16173;SDS011;14031;50.158;8.626;2022-08-02T05:59:04;2.90;;;2.80;;
16173;SDS011;14031;50.158;8.626;2022-08-02T06:01:38;2.88;;;2.40;;
16173;SDS011;14031;50.158;8.626;2022-08-02T06:04:09;2.28;;;2.17;;
16173;SDS011;14031;50.158;8.626;2022-08-02T06:07:16;2.50;;;2.40;;
16173;SDS011;14031;50.158;8.626;2022-08-02T06:09:47;2.50;;;2.30;;
16173;SDS011;14031;50.158;8.626;2022-08-02T06:12:16;4.95;;;2.50;;
16173;SDS011;14031;50.158;8.626;2022-08-02T06:14:44;2.40;;;2.30;;
16173;SDS011;14031;50.158;8.626;2022-08-02T06:23:40;2.63;;;2.42;;
16173;SDS011;14031;50.158;8.626;2022-08-02T06:26:09;3.83;;;2.13;;
16173;SDS011;14031;50.158;8.626;2022-08-02T06:28:38;2.10;;;2.00;;
16173;SDS011;14031;50.158;8.626;2022-08-02T06:34:12;2.13;;;2.03;;
16173;SDS011;14031;50.158;8.626;2022-08-02T06:36:40;4.35;;;2.17;;
16173;SDS011;14031;50.158;8.626;2022-08-02T06:39:13;2.00;;;1.90;;
16173;SDS011;14031;50.158;8.626;2022-08-02T06:41:46;2.45;;;2.28;;
16173;SDS011;14031;50.158;8.626;2022-08-02T06:44:15;2.10;;;2.00;;
16173;SDS011;14031;50.158;8.626;2022-08-02T06:46:42;2.20;;;2.10;;
16173;SDS011;14031;50.158;8.626;2022-08-02T06:49:13;2.17;;;2.08;;
16173;SDS011;14031;50.158;8.626;2022-08-02T06:51:40;2.13;;;2.03;;
16173;SDS011;14031;50.158;8.626;2022-08-02T06:54:07;3.05;;;2.42;;
16173;SDS011;14031;50.158;8.626;2022-08-02T06:56:34;2.35;;;2.17;;
16173;SDS011;14031;50.158;8.626;2022-08-02T07:02:37;2.22;;;2.05;;
16173;SDS011;14031;50.158;8.626;2022-08-02T07:05:04;2.20;;;2.10;;
16173;SDS011;14031;50.158;8.626;2022-08-02T07:07:32;2.47;;;1.98;;
16173;SDS011;14031;50.158;8.626;2022-08-02T07:09:59;1.70;;;1.70;;
16173;SDS011;14031;50.158;8.626;2022-08-02T07:12:27;1.90;;;1.80;;
16173;SDS011;14031;50.158;8.626;2022-08-02T07:14:55;1.88;;;1.77;;
16173;SDS011;14031;50.158;8.626;2022-08-02T07:17:23;2.33;;;2.15;;
16173;SDS011;14031;50.158;8.626;2022-08-02T07:19:51;2.08;;;1.88;;
16173;SDS011;14031;50.158;8.626;2022-08-02T07:22:18;1.88;;;1.77;;
16173;SDS011;14031;50.158;8.626;2022-08-02T07:24:47;1.90;;;1.80;;
16173;SDS011;14031;50.158;8.626;2022-08-02T07:27:14;2.88;;;1.73;;
16173;SDS011;14031;50.158;8.626;2022-08-02T07:29:41;4.70;;;1.90;;
16173;SDS011;14031;50.158;8.626;2022-08-02T07:32:08;3.53;;;2.00;;
16173;SDS011;14031;50.158;8.626;2022-08-02T07:34:34;3.75;;;1.80;;
16173;SDS011;14031;50.158;8.626;2022-08-02T07:37:03;3.70;;;1.80;;
16173;SDS011;14031;50.158;8.626;2022-08-02T07:39:29;1.95;;;1.85;;
16173;SDS011;14031;50.158;8.626;2022-08-02T07:41:56;1.88;;;1.77;;
16173;SDS011;14031;50.158;8.626;2022-08-02T07:47:22;1.90;;;1.80;;
16173;SDS011;14031;50.158;8.626;2022-08-02T07:49:49;2.70;;;1.85;;
16173;SDS011;14031;50.158;8.626;2022-08-02T07:52:17;3.42;;;1.67;;
16173;SDS011;14031;50.158;8.626;2022-08-02T07:54:44;5.57;;;1.90;;
16173;SDS011;14031;50.158;8.626;2022-08-02T07:57:12;1.80;;;1.70;;
16173;SDS011;14031;50.158;8.626;2022-08-02T07:59:39;1.80;;;1.70;;
16173;SDS011;14031;50.158;8.626;2022-08-02T08:02:06;3.10;;;2.10;;
16173;SDS011;14031;50.158;8.626;2022-08-02T08:04:33;1.90;;;1.80;;
16173;SDS011;14031;50.158;8.626;2022-08-02T08:07:00;2.85;;;2.67;;
16173;SDS011;14031;50.158;8.626;2022-08-02T08:09:30;2.30;;;1.70;;
16173;SDS011;14031;50.158;8.626;2022-08-02T08:11:57;3.83;;;1.90;;
16173;SDS011;14031;50.158;8.626;2022-08-02T08:14:42;2.47;;;1.73;;
16173;SDS011;14031;50.158;8.626;2022-08-02T08:17:12;3.15;;;1.40;;
16173;SDS011;14031;50.158;8.626;2022-08-02T08:19:54;1.58;;;1.48;;
16173;SDS011;14031;50.158;8.626;2022-08-02T08:22:22;2.67;;;1.63;;
16173;SDS011;14031;50.158;8.626;2022-08-02T08:24:50;1.90;;;1.60;;
16173;SDS011;14031;50.158;8.626;2022-08-02T08:27:17;2.08;;;1.75;;
16173;SDS011;14031;50.158;8.626;2022-08-02T08:29:46;3.13;;;1.70;;
16173;SDS011;14031;50.158;8.626;2022-08-02T08:32:14;1.70;;;1.60;;
16173;SDS011;14031;50.158;8.626;2022-08-02T08:34:41;3.65;;;1.80;;
16173;SDS011;14031;50.158;8.626;2022-08-02T08:37:08;1.67;;;1.55;;
16173;SDS011;14031;50.158;8.626;2022-08-02T08:39:34;3.90;;;1.65;;
16173;SDS011;14031;50.158;8.626;2022-08-02T08:42:05;4.32;;;1.67;;
16173;SDS011;14031;50.158;8.626;2022-08-02T08:44:33;2.67;;;1.50;;
16173;SDS011;14031;50.158;8.626;2022-08-02T08:47:00;1.60;;;1.50;;
16173;SDS011;14031;50.158;8.626;2022-08-02T08:49:30;1.63;;;1.50;;
16173;SDS011;14031;50.158;8.626;2022-08-02T08:52:00;1.48;;;1.48;;
16173;SDS011;14031;50.158;8.626;2022-08-02T08:54:30;1.52;;;1.50;;
16173;SDS011;14031;50.158;8.626;2022-08-02T08:57:02;1.50;;;1.40;;
16173;SDS011;14031;50.158;8.626;2022-08-02T08:59:31;1.30;;;1.30;;
16173;SDS011;14031;50.158;8.626;2022-08-02T09:01:58;2.05;;;1.45;;
16173;SDS011;14031;50.158;8.626;2022-08-02T09:04:26;1.50;;;1.40;;
16173;SDS011;14031;50.158;8.626;2022-08-02T09:06:53;1.30;;;1.30;;
16173;SDS011;14031;50.158;8.626;2022-08-02T09:09:20;1.52;;;1.50;;
16173;SDS011;14031;50.158;8.626;2022-08-02T09:11:46;1.23;;;1.23;;
16173;SDS011;14031;50.158;8.626;2022-08-02T09:14:24;2.55;;;1.55;;
16173;SDS011;14031;50.158;8.626;2022-08-02T09:16:53;1.38;;;1.20;;
16173;SDS011;14031;50.158;8.626;2022-08-02T09:19:32;1.70;;;1.60;;
16173;SDS011;14031;50.158;8.626;2022-08-02T09:22:01;1.17;;;1.13;;
16173;SDS011;14031;50.158;8.626;2022-08-02T09:24:31;1.42;;;1.30;;
16173;SDS011;14031;50.158;8.626;2022-08-02T09:27:09;3.13;;;1.40;;
16173;SDS011;14031;50.158;8.626;2022-08-02T09:29:37;1.40;;;1.40;;
16173;SDS011;14031;50.158;8.626;2022-08-02T09:32:05;1.48;;;1.40;;
16173;SDS011;14031;50.158;8.626;2022-08-02T09:34:45;1.27;;;1.27;;
16173;SDS011;14031;50.158;8.626;2022-08-02T09:37:23;6.93;;;1.30;;
16173;SDS011;14031;50.158;8.626;2022-08-02T09:39:51;1.33;;;1.33;;
16173;SDS011;14031;50.158;8.626;2022-08-02T09:42:18;1.05;;;1.05;;
16173;SDS011;14031;50.158;8.626;2022-08-02T09:44:51;1.40;;;1.17;;
16173;SDS011;14031;50.158;8.626;2022-08-02T09:47:20;1.30;;;1.27;;
16173;SDS011;14031;50.158;8.626;2022-08-02T09:49:49;2.33;;;1.50;;
16173;SDS011;14031;50.158;8.626;2022-08-02T09:52:20;1.50;;;1.40;;
16173;SDS011;14031;50.158;8.626;2022-08-02T09:54:47;1.10;;;1.10;;
16173;SDS011;14031;50.158;8.626;2022-08-02T09:57:22;2.88;;;1.50;;
16173;SDS011;14031;50.158;8.626;2022-08-02T09:59:52;1.20;;;1.20;;
16173;SDS011;14031;50.158;8.626;2022-08-02T10:02:22;1.58;;;1.48;;
16173;SDS011;14031;50.158;8.626;2022-08-02T10:04:49;1.40;;;1.35;;
16173;SDS011;14031;50.158;8.626;2022-08-02T10:07:16;1.52;;;1.42;;
16173;SDS011;14031;50.158;8.626;2022-08-02T10:09:44;2.92;;;1.25;;
16173;SDS011;14031;50.158;8.626;2022-08-02T10:12:12;1.20;;;1.20;;
16173;SDS011;14031;50.158;8.626;2022-08-02T10:14:39;1.30;;;1.30;;
16173;SDS011;14031;50.158;8.626;2022-08-02T10:17:07;1.35;;;1.25;;
16173;SDS011;14031;50.158;8.626;2022-08-02T10:19:37;2.05;;;1.38;;
16173;SDS011;14031;50.158;8.626;2022-08-02T10:22:05;1.30;;;1.30;;
16173;SDS011;14031;50.158;8.626;2022-08-02T10:24:36;1.20;;;1.20;;
16173;SDS011;14031;50.158;8.626;2022-08-02T10:27:04;1.25;;;1.25;;
16173;SDS011;14031;50.158;8.626;2022-08-02T10:29:33;2.58;;;1.10;;
16173;SDS011;14031;50.158;8.626;2022-08-02T10:32:02;1.42;;;1.38;;
16173;SDS011;14031;50.158;8.626;2022-08-02T10:34:33;2.55;;;1.48;;
16173;SDS011;14031;50.158;8.626;2022-08-02T10:37:06;1.77;;;1.67;;
16173;SDS011;14031;50.158;8.626;2022-08-02T10:39:38;1.27;;;1.27;;
16173;SDS011;14031;50.158;8.626;2022-08-02T10:42:05;1.65;;;1.60;;
16173;SDS011;14031;50.158;8.626;2022-08-02T10:44:33;1.30;;;1.30;;
16173;SDS011;14031;50.158;8.626;2022-08-02T10:47:20;1.92;;;1.30;;
16173;SDS011;14031;50.158;8.626;2022-08-02T10:49:51;1.50;;;1.40;;
16173;SDS011;14031;50.158;8.626;2022-08-02T10:52:19;1.48;;;1.38;;
16173;SDS011;14031;50.158;8.626;2022-08-02T10:54:47;1.10;;;1.10;;
16173;SDS011;14031;50.158;8.626;2022-08-02T10:57:16;2.58;;;1.60;;
16173;SDS011;14031;50.158;8.626;2022-08-02T10:59:46;1.60;;;1.58;;
16173;SDS011;14031;50.158;8.626;2022-08-02T11:02:13;1.83;;;1.73;;
16173;SDS011;14031;50.158;8.626;2022-08-02T11:05:01;1.30;;;1.25;;
16173;SDS011;14031;50.158;8.626;2022-08-02T11:07:32;3.67;;;1.27;;
16173;SDS011;14031;50.158;8.626;2022-08-02T11:13:04;1.30;;;1.30;;
16173;SDS011;14031;50.158;8.626;2022-08-02T11:15:52;1.80;;;1.70;;
16173;SDS011;14031;50.158;8.626;2022-08-02T11:21:31;1.40;;;1.40;;
16173;SDS011;14031;50.158;8.626;2022-08-02T11:26:55;1.70;;;1.50;;
16173;SDS011;14031;50.158;8.626;2022-08-02T11:29:30;1.55;;;1.30;;
16173;SDS011;14031;50.158;8.626;2022-08-02T11:32:01;1.60;;;1.33;;
16173;SDS011;14031;50.158;8.626;2022-08-02T11:34:30;2.05;;;1.35;;
16173;SDS011;14031;50.158;8.626;2022-08-02T11:36:59;1.38;;;1.38;;
16173;SDS011;14031;50.158;8.626;2022-08-02T11:39:26;1.83;;;1.48;;
16173;SDS011;14031;50.158;8.626;2022-08-02T11:41:54;1.98;;;1.42;;
16173;SDS011;14031;50.158;8.626;2022-08-02T11:44:22;1.20;;;1.20;;
16173;SDS011;14031;50.158;8.626;2022-08-02T11:46:52;1.42;;;1.42;;
16173;SDS011;14031;50.158;8.626;2022-08-02T11:49:20;1.42;;;1.40;;
16173;SDS011;14031;50.158;8.626;2022-08-02T11:51:54;1.50;;;1.40;;
16173;SDS011;14031;50.158;8.626;2022-08-02T11:54:26;2.13;;;1.10;;
16173;SDS011;14031;50.158;8.626;2022-08-02T11:56:54;1.20;;;1.20;;
16173;SDS011;14031;50.158;8.626;2022-08-02T11:59:42;1.05;;;1.05;;
16173;SDS011;14031;50.158;8.626;2022-08-02T12:02:10;1.70;;;1.60;;
16173;SDS011;14031;50.158;8.626;2022-08-02T12:04:38;1.55;;;1.42;;
16173;SDS011;14031;50.158;8.626;2022-08-02T12:07:06;1.27;;;1.27;;
16173;SDS011;14031;50.158;8.626;2022-08-02T12:09:35;2.28;;;1.30;;
16173;SDS011;14031;50.158;8.626;2022-08-02T12:12:02;1.30;;;1.20;;
16173;SDS011;14031;50.158;8.626;2022-08-02T12:14:30;1.30;;;1.20;;
16173;SDS011;14031;50.158;8.626;2022-08-02T12:16:58;3.17;;;1.20;;
16173;SDS011;14031;50.158;8.626;2022-08-02T12:19:44;1.50;;;1.40;;
16173;SDS011;14031;50.158;8.626;2022-08-02T12:22:13;1.50;;;1.40;;
16173;SDS011;14031;50.158;8.626;2022-08-02T12:24:45;1.30;;;1.30;;
16173;SDS011;14031;50.158;8.626;2022-08-02T12:27:29;1.30;;;1.30;;
16173;SDS011;14031;50.158;8.626;2022-08-02T12:29:57;1.42;;;1.33;;
16173;SDS011;14031;50.158;8.626;2022-08-02T12:32:26;1.90;;;1.80;;
16173;SDS011;14031;50.158;8.626;2022-08-02T12:35:00;3.45;;;1.48;;
16173;SDS011;14031;50.158;8.626;2022-08-02T12:37:32;1.80;;;1.70;;
16173;SDS011;14031;50.158;8.626;2022-08-02T12:42:55;1.58;;;1.48;;
16173;SDS011;14031;50.158;8.626;2022-08-02T12:45:23;2.05;;;1.20;;
16173;SDS011;14031;50.158;8.626;2022-08-02T12:47:53;1.25;;;1.25;;
16173;SDS011;14031;50.158;8.626;2022-08-02T12:50:23;0.98;;;0.98;;
16173;SDS011;14031;50.158;8.626;2022-08-02T12:53:01;1.20;;;1.20;;
16173;SDS011;14031;50.158;8.626;2022-08-02T12:55:30;1.70;;;1.60;;
16173;SDS011;14031;50.158;8.626;2022-08-02T12:58:00;1.83;;;1.35;;
16173;SDS011;14031;50.158;8.626;2022-08-02T13:00:28;2.15;;;1.33;;
16173;SDS011;14031;50.158;8.626;2022-08-02T13:02:56;1.40;;;1.30;;
16173;SDS011;14031;50.158;8.626;2022-08-02T13:05:24;1.65;;;1.55;;
16173;SDS011;14031;50.158;8.626;2022-08-02T13:07:53;1.50;;;1.35;;
16173;SDS011;14031;50.158;8.626;2022-08-02T13:10:20;1.95;;;1.48;;
16173;SDS011;14031;50.158;8.626;2022-08-02T13:12:49;2.15;;;1.40;;
16173;SDS011;14031;50.158;8.626;2022-08-02T13:15:16;1.40;;;1.40;;
16173;SDS011;14031;50.158;8.626;2022-08-02T13:17:44;1.42;;;1.42;;
16173;SDS011;14031;50.158;8.626;2022-08-02T13:20:11;1.48;;;1.40;;
16173;SDS011;14031;50.158;8.626;2022-08-02T13:22:39;1.23;;;1.23;;
16173;SDS011;14031;50.158;8.626;2022-08-02T13:25:07;1.40;;;1.40;;
16173;SDS011;14031;50.158;8.626;2022-08-02T13:27:35;1.42;;;1.30;;
16173;SDS011;14031;50.158;8.626;2022-08-02T13:30:04;1.30;;;1.30;;
16173;SDS011;14031;50.158;8.626;2022-08-02T13:32:32;1.83;;;1.73;;
16173;SDS011;14031;50.158;8.626;2022-08-02T13:34:59;1.33;;;1.33;;
16173;SDS011;14031;50.158;8.626;2022-08-02T13:37:26;1.52;;;1.45;;
16173;SDS011;14031;50.158;8.626;2022-08-02T13:39:53;1.52;;;1.42;;
16173;SDS011;14031;50.158;8.626;2022-08-02T13:42:20;1.40;;;1.30;;
16173;SDS011;14031;50.158;8.626;2022-08-02T13:44:47;1.50;;;1.40;;
16173;SDS011;14031;50.158;8.626;2022-08-02T13:47:15;1.33;;;1.23;;
16173;SDS011;14031;50.158;8.626;2022-08-02T13:49:42;1.42;;;1.35;;
16173;SDS011;14031;50.158;8.626;2022-08-02T13:52:09;1.48;;;1.40;;
16173;SDS011;14031;50.158;8.626;2022-08-02T13:54:36;1.17;;;1.17;;
16173;SDS011;14031;50.158;8.626;2022-08-02T13:57:03;4.93;;;1.67;;
16173;SDS011;14031;50.158;8.626;2022-08-02T13:59:30;2.15;;;1.30;;
16173;SDS011;14031;50.158;8.626;2022-08-02T14:01:57;1.52;;;1.42;;
16173;SDS011;14031;50.158;8.626;2022-08-02T14:04:26;2.30;;;1.45;;
16173;SDS011;14031;50.158;8.626;2022-08-02T14:06:54;1.80;;;1.48;;
16173;SDS011;14031;50.158;8.626;2022-08-02T14:09:21;2.25;;;1.23;;
16173;SDS011;14031;50.158;8.626;2022-08-02T14:11:50;1.25;;;1.25;;
16173;SDS011;14031;50.158;8.626;2022-08-02T14:14:17;1.23;;;1.13;;
16173;SDS011;14031;50.158;8.626;2022-08-02T14:16:44;1.25;;;1.25;;
16173;SDS011;14031;50.158;8.626;2022-08-02T14:19:11;1.90;;;1.23;;
16173;SDS011;14031;50.158;8.626;2022-08-02T14:21:40;1.42;;;1.40;;
16173;SDS011;14031;50.158;8.626;2022-08-02T14:24:07;1.38;;;1.10;;
16173;SDS011;14031;50.158;8.626;2022-08-02T14:26:33;1.20;;;1.20;;
16173;SDS011;14031;50.158;8.626;2022-08-02T14:29:00;1.52;;;1.42;;
16173;SDS011;14031;50.158;8.626;2022-08-02T14:31:27;1.48;;;1.38;;
16173;SDS011;14031;50.158;8.626;2022-08-02T14:33:54;1.23;;;1.23;;
16173;SDS011;14031;50.158;8.626;2022-08-02T14:36:21;3.13;;;1.42;;
16173;SDS011;14031;50.158;8.626;2022-08-02T14:38:49;1.08;;;1.08;;
16173;SDS011;14031;50.158;8.626;2022-08-02T14:41:16;1.55;;;1.50;;
16173;SDS011;14031;50.158;8.626;2022-08-02T14:43:43;2.53;;;1.45;;
16173;SDS011;14031;50.158;8.626;2022-08-02T14:46:27;1.23;;;1.23;;
16173;SDS011;14031;50.158;8.626;2022-08-02T14:48:54;1.02;;;1.02;;
16173;SDS011;14031;50.158;8.626;2022-08-02T14:51:21;1.40;;;1.40;;
16173;SDS011;14031;50.158;8.626;2022-08-02T14:53:49;1.17;;;1.17;;
16173;SDS011;14031;50.158;8.626;2022-08-02T14:56:16;1.95;;;1.15;;
16173;SDS011;14031;50.158;8.626;2022-08-02T14:58:43;3.90;;;1.40;;
16173;SDS011;14031;50.158;8.626;2022-08-02T15:01:10;1.20;;;1.20;;
16173;SDS011;14031;50.158;8.626;2022-08-02T15:03:37;1.10;;;1.10;;
16173;SDS011;14031;50.158;8.626;2022-08-02T15:06:04;2.28;;;1.40;;
16173;SDS011;14031;50.158;8.626;2022-08-02T15:08:30;1.27;;;1.20;;
16173;SDS011;14031;50.158;8.626;2022-08-02T15:10:59;1.20;;;1.20;;
16173;SDS011;14031;50.158;8.626;2022-08-02T15:13:26;1.27;;;1.27;;
16173;SDS011;14031;50.158;8.626;2022-08-02T15:15:53;1.63;;;1.20;;
16173;SDS011;14031;50.158;8.626;2022-08-02T15:18:19;1.30;;;1.30;;
16173;SDS011;14031;50.158;8.626;2022-08-02T15:20:46;1.25;;;1.20;;
16173;SDS011;14031;50.158;8.626;2022-08-02T15:23:13;1.20;;;1.20;;
16173;SDS011;14031;50.158;8.626;2022-08-02T15:25:41;1.25;;;1.20;;
16173;SDS011;14031;50.158;8.626;2022-08-02T15:28:09;1.30;;;1.20;;
16173;SDS011;14031;50.158;8.626;2022-08-02T15:30:36;3.22;;;1.40;;
16173;SDS011;14031;50.158;8.626;2022-08-02T15:33:10;1.20;;;1.20;;
16173;SDS011;14031;50.158;8.626;2022-08-02T15:35:39;1.33;;;1.30;;
16173;SDS011;14031;50.158;8.626;2022-08-02T15:38:06;1.45;;;1.40;;
16173;SDS011;14031;50.158;8.626;2022-08-02T15:40:33;1.35;;;1.35;;
16173;SDS011;14031;50.158;8.626;2022-08-02T15:43:06;1.30;;;1.30;;
16173;SDS011;14031;50.158;8.626;2022-08-02T15:48:12;1.92;;;1.35;;
16173;SDS011;14031;50.158;8.626;2022-08-02T15:50:39;1.30;;;1.30;;
16173;SDS011;14031;50.158;8.626;2022-08-02T15:53:06;1.42;;;1.33;;
16173;SDS011;14031;50.158;8.626;2022-08-02T15:55:33;1.48;;;1.38;;
16173;SDS011;14031;50.158;8.626;2022-08-02T16:00:32;1.67;;;1.60;;
16173;SDS011;14031;50.158;8.626;2022-08-02T16:02:59;1.38;;;1.38;;
16173;SDS011;14031;50.158;8.626;2022-08-02T16:05:27;1.30;;;1.30;;
16173;SDS011;14031;50.158;8.626;2022-08-02T16:07:54;1.50;;;1.40;;